createdAt,value
2023-08-22T00:00:31.508Z,17.07
2023-08-22T00:02:59.589Z,16.70
2023-08-22T00:05:27.194Z,17.93
2023-08-22T00:07:54.798Z,16.93
2023-08-22T00:10:21.615Z,13.30
2023-08-22T00:12:48.563Z,14.60
2023-08-22T00:15:15.403Z,15.67
2023-08-22T00:17:43.192Z,18.87
2023-08-22T00:20:11.161Z,14.83
2023-08-22T00:22:38.667Z,23.80
2023-08-22T00:25:06.191Z,15.60
2023-08-22T00:27:33.381Z,16.43
2023-08-22T00:30:00.224Z,19.73
2023-08-22T00:32:27.348Z,17.50
2023-08-22T00:34:54.655Z,21.60
2023-08-22T00:37:22.250Z,18.43
2023-08-22T00:39:50.763Z,22.50
2023-08-22T00:42:18.226Z,21.83
2023-08-22T00:44:45.889Z,24.00
2023-08-22T00:47:13.646Z,20.73
2023-08-22T00:49:41.581Z,19.90
2023-08-22T00:52:09.216Z,22.97
2023-08-22T00:54:36.607Z,14.90
2023-08-22T00:57:05.031Z,20.77
2023-08-22T00:59:33.256Z,17.20
2023-08-22T01:02:00.489Z,27.37
2023-08-22T01:04:27.346Z,32.17
2023-08-22T01:07:08.718Z,20.47
2023-08-22T01:09:42.155Z,23.47
2023-08-22T01:12:29.294Z,25.87
2023-08-22T01:15:06.875Z,21.67
2023-08-22T01:17:35.655Z,36.50
2023-08-22T01:20:04.392Z,23.27
2023-08-22T01:22:32.089Z,25.50
2023-08-22T01:24:59.136Z,27.73
2023-08-22T01:27:28.199Z,25.17
2023-08-22T01:30:06.211Z,32.83
2023-08-22T01:32:36.674Z,33.37
2023-08-22T01:35:05.816Z,25.90
2023-08-22T01:37:33.591Z,29.87
2023-08-22T01:40:01.565Z,20.07
2023-08-22T01:42:29.732Z,24.53
2023-08-22T01:44:56.839Z,33.23
2023-08-22T01:47:23.579Z,26.50
2023-08-22T01:49:50.644Z,21.33
2023-08-22T01:52:19.550Z,27.87
2023-08-22T01:54:46.538Z,25.53
2023-08-22T01:57:13.299Z,22.40
2023-08-22T01:59:40.738Z,34.60
2023-08-22T02:02:09.103Z,27.77
2023-08-22T02:04:36.550Z,25.10
2023-08-22T02:07:04.213Z,28.43
2023-08-22T02:09:31.074Z,29.00
2023-08-22T02:11:58.157Z,33.07
2023-08-22T02:14:25.535Z,36.63
2023-08-22T02:16:52.621Z,23.47
2023-08-22T02:19:19.976Z,35.90
2023-08-22T02:21:48.276Z,29.67
2023-08-22T02:24:15.512Z,29.07
2023-08-22T02:26:44.359Z,33.40
2023-08-22T02:29:11.646Z,30.63
2023-08-22T02:31:38.988Z,26.57
2023-08-22T02:34:06.492Z,31.50
2023-08-22T02:36:33.592Z,26.17
2023-08-22T02:39:00.599Z,33.63
2023-08-22T02:41:28.288Z,38.40
2023-08-22T02:43:57.652Z,34.10
2023-08-22T02:46:24.690Z,34.90
2023-08-22T02:48:51.811Z,28.80
2023-08-22T02:51:19.215Z,38.90
2023-08-22T02:53:49.435Z,23.70
2023-08-22T02:56:16.631Z,31.00
2023-08-22T02:58:43.599Z,34.80
2023-08-22T03:01:11.131Z,29.23
2023-08-22T03:03:42.609Z,32.10
2023-08-22T03:06:25.485Z,36.47
2023-08-22T03:08:53.357Z,35.13
2023-08-22T03:11:23.355Z,33.50
2023-08-22T03:13:53.803Z,35.90
2023-08-22T03:16:21.321Z,30.97
2023-08-22T03:18:48.896Z,28.77
2023-08-22T03:21:16.457Z,36.40
2023-08-22T03:23:45.244Z,34.97
2023-08-22T03:26:15.323Z,25.87
2023-08-22T03:28:43.143Z,27.20
2023-08-22T03:31:11.296Z,37.57
2023-08-22T03:33:39.104Z,50.33
2023-08-22T03:36:08.974Z,36.77
2023-08-22T03:38:35.997Z,42.03
2023-08-22T03:41:03.978Z,32.07
2023-08-22T03:43:31.582Z,32.00
2023-08-22T03:46:02.045Z,33.60
2023-08-22T03:48:29.275Z,32.90
2023-08-22T03:50:57.857Z,33.77
2023-08-22T03:53:25.170Z,33.93
2023-08-22T03:55:53.126Z,36.30
2023-08-22T03:58:20.170Z,36.97
2023-08-22T04:00:47.047Z,32.77
2023-08-22T04:03:14.593Z,50.27
2023-08-22T04:05:43.208Z,32.30
2023-08-22T04:08:10.063Z,33.47
2023-08-22T04:10:37.405Z,38.47
2023-08-22T04:13:04.627Z,39.50
2023-08-22T04:15:31.387Z,40.23
2023-08-22T04:17:59.151Z,34.70
2023-08-22T04:20:26.000Z,37.67
2023-08-22T04:22:52.858Z,33.00
2023-08-22T04:25:19.810Z,37.97
2023-08-22T04:27:47.565Z,43.97
2023-08-22T04:30:16.093Z,40.77
2023-08-22T04:32:43.119Z,34.43
2023-08-22T04:35:09.849Z,39.70
2023-08-22T04:37:43.686Z,47.57
2023-08-22T04:40:11.986Z,37.03
2023-08-22T04:42:47.045Z,42.30
2023-08-22T04:45:15.825Z,35.83
2023-08-22T04:47:43.109Z,47.17
2023-08-22T04:50:10.625Z,44.87
2023-08-22T04:52:38.171Z,37.77
2023-08-22T04:55:06.257Z,52.20
2023-08-22T04:57:34.618Z,43.30
2023-08-22T05:00:01.795Z,34.97
2023-08-22T05:02:29.566Z,44.43
2023-08-22T05:04:57.810Z,35.30
2023-08-22T05:07:25.512Z,34.77
2023-08-22T05:09:54.376Z,35.57
2023-08-22T05:12:22.480Z,33.60
2023-08-22T05:14:49.337Z,36.20
2023-08-22T05:17:17.085Z,34.43
2023-08-22T05:19:44.861Z,34.83
2023-08-22T05:22:13.001Z,37.23
2023-08-22T05:24:40.256Z,29.30
2023-08-22T05:27:07.503Z,27.63
2023-08-22T05:29:35.105Z,36.90
2023-08-22T05:32:03.016Z,21.73
2023-08-22T05:34:32.200Z,25.83
2023-08-22T05:36:59.637Z,39.00
2023-08-22T05:39:27.022Z,25.23
2023-08-22T05:41:54.081Z,36.63
2023-08-22T05:44:22.839Z,23.00
2023-08-22T05:46:50.622Z,34.23
2023-08-22T05:49:20.127Z,32.83
2023-08-22T05:51:47.360Z,35.67
2023-08-22T05:54:15.172Z,40.33
2023-08-22T05:56:42.943Z,22.40
2023-08-22T05:59:10.351Z,23.90
2023-08-22T06:01:38.723Z,32.40
2023-08-22T06:04:09.015Z,28.93
2023-08-22T06:06:36.417Z,24.60
2023-08-22T06:09:06.016Z,30.20
2023-08-22T06:11:33.272Z,19.13
2023-08-22T06:14:00.893Z,24.77
2023-08-22T06:16:28.047Z,21.40
2023-08-22T06:18:55.546Z,20.40
2023-08-22T06:21:22.951Z,21.90
2023-08-22T06:23:50.620Z,22.23
2023-08-22T06:26:18.750Z,17.37
2023-08-22T06:28:48.383Z,19.30
2023-08-22T06:31:15.678Z,16.00
2023-08-22T06:33:43.346Z,30.63
2023-08-22T06:36:10.794Z,27.43
2023-08-22T06:38:38.636Z,24.80
2023-08-22T06:41:06.169Z,34.77
2023-08-22T06:46:28.573Z,25.27
2023-08-22T06:48:56.617Z,20.40
2023-08-22T06:51:26.080Z,21.83
2023-08-22T06:53:53.523Z,28.10
2023-08-22T06:56:20.891Z,18.93
2023-08-22T06:58:48.604Z,28.37
2023-08-22T07:01:16.451Z,25.17
2023-08-22T07:03:44.938Z,23.30
2023-08-22T07:06:12.038Z,21.77
2023-08-22T07:08:39.200Z,22.30
2023-08-22T07:11:06.566Z,18.40
2023-08-22T07:13:34.803Z,18.60
2023-08-22T07:16:01.885Z,19.57
2023-08-22T07:18:29.268Z,24.37
2023-08-22T07:20:56.171Z,26.97
2023-08-22T07:23:23.900Z,24.10
2023-08-22T07:25:51.632Z,26.03
2023-08-22T07:28:19.642Z,31.97
2023-08-22T07:30:49.851Z,28.07
2023-08-22T07:33:18.259Z,26.87
2023-08-22T07:35:46.421Z,26.57
2023-08-22T07:38:14.360Z,25.67
2023-08-22T07:40:42.564Z,21.90
2023-08-22T07:43:10.302Z,26.33
2023-08-22T07:45:37.671Z,27.70
2023-08-22T07:48:04.800Z,23.37
2023-08-22T07:50:32.803Z,25.90
2023-08-22T07:53:01.490Z,23.57
2023-08-22T07:55:28.573Z,17.23
2023-08-22T07:57:56.000Z,16.87
2023-08-22T08:00:24.216Z,17.60
2023-08-22T08:02:52.433Z,16.80
2023-08-22T08:05:23.350Z,13.00
2023-08-22T08:07:51.521Z,20.30
2023-08-22T08:10:20.164Z,15.33
2023-08-22T08:12:47.381Z,21.93
2023-08-22T08:15:14.469Z,18.67
2023-08-22T08:17:41.458Z,30.40
2023-08-22T08:20:11.954Z,14.87
2023-08-22T08:22:39.468Z,24.70
2023-08-22T08:25:07.086Z,18.17
2023-08-22T08:27:34.547Z,11.60
2023-08-22T08:30:06.726Z,13.13
2023-08-22T08:32:34.890Z,29.27
2023-08-22T08:35:03.045Z,11.30
2023-08-22T08:37:30.777Z,9.27
2023-08-22T08:39:58.622Z,12.30
2023-08-22T08:42:26.480Z,13.67
2023-08-22T08:44:53.810Z,11.23
2023-08-22T08:47:20.935Z,21.03
2023-08-22T08:49:48.673Z,10.63
2023-08-22T08:52:17.168Z,11.00
2023-08-22T08:54:45.346Z,12.93
2023-08-22T08:57:12.891Z,9.00
2023-08-22T08:59:41.542Z,13.60
2023-08-22T09:02:12.289Z,16.93
2023-08-22T09:04:43.514Z,14.53
2023-08-22T09:07:10.724Z,12.90
2023-08-22T09:09:38.154Z,12.37
2023-08-22T09:12:09.437Z,12.97
2023-08-22T09:14:47.592Z,17.07
2023-08-22T09:17:19.144Z,28.10
2023-08-22T09:19:46.812Z,13.27
2023-08-22T09:22:15.770Z,13.00
2023-08-22T09:24:51.928Z,8.73
2023-08-22T09:27:24.104Z,10.80
2023-08-22T09:29:51.027Z,12.50
2023-08-22T09:32:17.992Z,9.30
2023-08-22T09:34:55.368Z,10.00
2023-08-22T09:37:36.229Z,15.63
2023-08-22T09:40:07.711Z,14.07
2023-08-22T09:42:38.458Z,15.27
2023-08-22T09:45:06.274Z,7.23
2023-08-22T09:47:36.584Z,7.47
2023-08-22T09:50:07.942Z,10.13
2023-08-22T09:52:37.982Z,14.33
2023-08-22T09:55:06.090Z,15.07
2023-08-22T09:57:35.100Z,8.47
2023-08-22T10:00:04.214Z,15.33
2023-08-22T10:02:41.116Z,15.17
2023-08-22T10:05:09.675Z,9.20
2023-08-22T10:07:36.958Z,13.33
2023-08-22T10:10:05.512Z,12.73
2023-08-22T10:12:33.222Z,14.13
2023-08-22T10:15:00.803Z,16.90
2023-08-22T10:17:28.458Z,13.90
2023-08-22T10:20:06.011Z,12.27
2023-08-22T10:22:36.279Z,17.20
2023-08-22T10:25:06.340Z,10.23
2023-08-22T10:27:34.344Z,12.13
2023-08-22T10:30:20.666Z,10.60
2023-08-22T10:36:05.927Z,10.50
2023-08-22T10:36:26.360Z,11.93
2023-08-22T10:38:53.058Z,15.13
2023-08-22T10:41:24.828Z,13.33
2023-08-22T10:43:55.114Z,10.70
2023-08-22T10:46:42.931Z,13.23
2023-08-22T10:49:10.811Z,11.10
2023-08-22T10:51:44.664Z,14.90
2023-08-22T10:54:17.552Z,15.27
2023-08-22T10:56:44.921Z,16.40
2023-08-22T10:59:11.672Z,10.67
2023-08-22T11:01:39.128Z,11.80
2023-08-22T11:04:09.757Z,18.93
2023-08-22T11:06:39.060Z,8.43
2023-08-22T11:09:06.927Z,8.80
2023-08-22T11:11:36.420Z,13.00
2023-08-22T11:14:04.100Z,7.37
2023-08-22T11:16:31.841Z,9.40
2023-08-22T11:18:59.007Z,7.70
2023-08-22T11:21:26.475Z,5.20
2023-08-22T11:23:55.616Z,4.53
2023-08-22T11:26:24.029Z,8.60
2023-08-22T11:28:51.765Z,7.30
2023-08-22T11:31:18.878Z,7.10
2023-08-22T11:33:51.952Z,5.90
2023-08-22T11:36:20.187Z,3.03
2023-08-22T11:38:48.832Z,9.43
2023-08-22T11:41:15.965Z,3.13
2023-08-22T11:43:47.579Z,5.87
2023-08-22T11:46:15.210Z,2.77
2023-08-22T11:48:42.506Z,10.20
2023-08-22T11:51:09.935Z,10.07
2023-08-22T11:53:37.238Z,11.67
2023-08-22T11:56:06.600Z,7.00
2023-08-22T11:58:37.207Z,3.40
2023-08-22T12:01:05.363Z,4.53
2023-08-22T12:03:45.355Z,6.17
2023-08-22T12:06:13.659Z,6.53
2023-08-22T12:08:40.681Z,9.10
2023-08-22T12:11:07.763Z,7.57
2023-08-22T12:13:37.044Z,6.13
2023-08-22T12:16:07.485Z,4.40
2023-08-22T12:18:36.146Z,2.40
2023-08-22T12:21:04.021Z,6.13
2023-08-22T12:23:31.609Z,1.80
2023-08-22T12:25:59.166Z,3.83
2023-08-22T12:28:26.740Z,3.60
2023-08-22T12:30:54.038Z,4.80
2023-08-22T12:33:21.517Z,4.17
2023-08-22T12:35:49.392Z,4.30
2023-08-22T12:38:17.035Z,7.37
2023-08-22T12:40:44.840Z,5.70
2023-08-22T12:43:11.950Z,7.67
2023-08-22T12:45:39.744Z,5.97
2023-08-22T12:48:07.538Z,10.93
2023-08-22T12:50:36.991Z,9.97
2023-08-22T12:53:07.631Z,6.57
2023-08-22T12:55:34.545Z,10.17
2023-08-22T12:58:02.327Z,7.50
2023-08-22T13:00:29.803Z,10.43
2023-08-22T13:02:57.273Z,7.70
2023-08-22T13:05:24.783Z,8.03
2023-08-22T13:07:52.130Z,4.13
2023-08-22T13:10:18.894Z,6.87
2023-08-22T13:12:46.198Z,6.33
2023-08-22T13:15:18.367Z,11.70
2023-08-22T13:17:45.946Z,5.47
2023-08-22T13:20:14.067Z,4.40
2023-08-22T13:22:40.985Z,8.70
2023-08-22T13:25:08.419Z,5.73
2023-08-22T13:27:36.820Z,11.53
2023-08-22T13:30:07.196Z,2.53
2023-08-22T13:32:34.237Z,6.70
2023-08-22T13:35:01.374Z,6.20
2023-08-22T13:37:32.447Z,9.73
2023-08-22T13:40:00.390Z,6.60
2023-08-22T13:42:28.237Z,6.60
2023-08-22T13:44:55.282Z,4.80
2023-08-22T13:47:22.676Z,7.13
2023-08-22T13:49:52.692Z,4.87
2023-08-22T13:52:28.287Z,3.73
2023-08-22T13:54:55.816Z,4.93
2023-08-22T13:57:23.686Z,6.83
2023-08-22T13:59:52.157Z,4.93
2023-08-22T14:02:19.305Z,5.73
2023-08-22T14:04:46.915Z,4.07
2023-08-22T14:07:14.956Z,3.43
2023-08-22T14:09:42.248Z,6.23
2023-08-22T14:12:09.815Z,6.37
2023-08-22T14:14:37.607Z,7.27
2023-08-22T14:17:05.809Z,3.60
2023-08-22T14:19:33.008Z,6.93
2023-08-22T14:49:15.694Z,1.50
2023-08-22T14:51:43.457Z,6.43
2023-08-22T14:54:12.358Z,6.30
2023-08-22T14:56:43.346Z,8.50
2023-08-22T15:17:21.435Z,15.90
2023-08-22T15:19:48.545Z,4.80
2023-08-22T15:22:16.228Z,5.83
2023-08-22T15:24:43.790Z,6.93
2023-08-22T15:27:12.357Z,2.53
2023-08-22T15:29:43.815Z,5.53
2023-08-22T15:32:11.288Z,5.07
2023-08-22T15:34:39.001Z,2.20
2023-08-22T15:37:06.848Z,6.03
2023-08-22T15:39:34.107Z,5.50
2023-08-22T15:42:01.611Z,6.00
2023-08-22T15:44:28.679Z,2.90
2023-08-22T17:56:27.091Z,4.77
2023-08-22T17:58:54.464Z,2.13
2023-08-22T18:01:21.312Z,14.00
2023-08-22T18:03:48.251Z,8.63
2023-08-22T18:06:15.693Z,5.37
2023-08-22T18:08:43.597Z,6.20
2023-08-22T18:11:12.176Z,5.50
2023-08-22T18:13:39.500Z,7.00
2023-08-22T18:16:10.557Z,14.97
2023-08-22T18:18:40.424Z,6.40
2023-08-22T18:21:09.664Z,12.30
2023-08-22T18:23:37.898Z,12.63
2023-08-22T18:26:06.004Z,10.00
2023-08-22T18:28:34.024Z,5.27
2023-08-22T18:31:03.195Z,3.93
2023-08-22T18:33:30.307Z,3.90
2023-08-22T18:35:57.654Z,8.83
2023-08-22T18:38:24.611Z,3.03
2023-08-22T18:40:55.063Z,13.07
2023-08-22T18:43:22.743Z,13.30
2023-08-22T18:45:50.413Z,3.00
2023-08-22T18:48:18.442Z,34.47
2023-08-22T18:50:47.618Z,11.50
2023-08-22T18:53:16.725Z,3.13
2023-08-22T18:55:44.071Z,4.50
2023-08-22T18:58:12.481Z,3.40
2023-08-22T19:00:39.934Z,3.03
2023-08-22T19:03:07.553Z,2.87
2023-08-22T19:05:34.631Z,4.77
2023-08-22T19:08:03.059Z,6.80
2023-08-22T19:10:30.263Z,5.33
2023-08-22T19:12:57.828Z,6.43
2023-08-22T19:15:25.306Z,4.70
2023-08-22T19:17:53.242Z,2.80
2023-08-22T19:20:22.684Z,4.77
2023-08-22T19:22:50.573Z,7.40
2023-08-22T19:25:17.862Z,6.20
2023-08-22T19:27:45.642Z,6.37
2023-08-22T19:30:14.395Z,7.10
2023-08-22T19:33:02.348Z,4.30
2023-08-22T19:35:29.984Z,7.30
2023-08-22T19:37:57.732Z,3.97
2023-08-22T19:40:25.497Z,7.80
2023-08-22T19:42:52.930Z,3.43
2023-08-22T19:45:25.856Z,7.07
2023-08-22T19:47:54.630Z,4.73
2023-08-22T19:50:31.641Z,6.20
2023-08-22T19:53:21.911Z,8.73
2023-08-22T19:55:55.563Z,5.90
2023-08-22T19:58:41.772Z,14.17
2023-08-22T20:05:47.334Z,5.60
2023-08-22T20:09:21.333Z,8.13
2023-08-22T20:12:31.384Z,4.87
2023-08-22T20:37:19.484Z,4.10
2023-08-22T20:40:35.273Z,3.67
2023-08-22T20:44:14.763Z,7.47
2023-08-22T21:22:25.089Z,5.27
2023-08-22T21:29:08.987Z,5.13
2023-08-22T21:31:46.203Z,6.30
2023-08-22T21:34:26.946Z,24.97
2023-08-22T21:37:02.613Z,14.30
2023-08-22T21:39:35.335Z,13.87
2023-08-22T21:42:15.150Z,6.30
2023-08-22T21:44:48.974Z,12.23
2023-08-22T21:47:44.952Z,8.90
2023-08-22T21:58:26.068Z,46.63
2023-08-22T22:01:08.832Z,17.70
2023-08-22T22:07:13.058Z,20.37
2023-08-22T22:16:00.365Z,32.53
2023-08-22T22:18:27.883Z,21.10
2023-08-22T22:20:55.716Z,8.03
2023-08-22T22:23:24.134Z,9.13
2023-08-22T22:26:10.273Z,24.93
2023-08-22T22:28:40.443Z,5.63
2023-08-22T22:31:10.878Z,7.13
2023-08-22T22:33:38.414Z,8.83
2023-08-22T22:36:08.195Z,26.37
2023-08-22T22:38:35.282Z,11.70
2023-08-22T22:41:03.231Z,7.03
2023-08-22T22:43:30.824Z,5.60
2023-08-22T22:45:58.025Z,4.17
2023-08-22T22:48:24.887Z,9.63
2023-08-22T22:50:52.684Z,4.63
2023-08-22T22:53:19.969Z,8.13
2023-08-22T22:55:47.707Z,8.77
2023-08-22T22:58:15.145Z,5.90
2023-08-22T23:00:42.312Z,10.37
2023-08-22T23:03:09.632Z,5.10
2023-08-22T23:05:37.476Z,5.03
2023-08-22T23:08:05.015Z,4.77
2023-08-22T23:10:32.402Z,9.73
2023-08-22T23:13:00.233Z,7.27
2023-08-22T23:15:29.561Z,6.47
2023-08-22T23:17:58.553Z,4.73
2023-08-22T23:23:11.653Z,7.03
2023-08-22T23:25:39.356Z,8.40
2023-08-22T23:28:06.745Z,7.40
2023-08-22T23:30:33.964Z,8.80
2023-08-22T23:33:02.724Z,7.90
2023-08-22T23:35:30.693Z,6.03
2023-08-22T23:37:57.974Z,9.30
2023-08-22T23:40:25.836Z,7.83
2023-08-22T23:42:53.470Z,7.03
2023-08-22T23:45:21.262Z,8.70
2023-08-22T23:47:48.520Z,4.27
2023-08-22T23:50:15.676Z,8.00
2023-08-22T23:52:42.638Z,5.17
2023-08-22T23:55:10.023Z,9.70
2023-08-22T23:57:37.789Z,4.90
